sensor_id;sensor_type;location;lat;lon;timestamp;pressure;altitude;pressure_sealevel;temperature;humidity
34177;BME280;20450;49.074;9.158;2022-08-11T00:02:32;99922.91;;;21.94;44.36
34177;BME280;20450;49.074;9.158;2022-08-11T00:05:05;99928.50;;;21.99;45.30
34177;BME280;20450;49.074;9.158;2022-08-11T00:07:41;99933.63;;;22.00;45.77
34177;BME280;20450;49.074;9.158;2022-08-11T00:10:12;99927.97;;;22.03;45.93
34177;BME280;20450;49.074;9.158;2022-08-11T00:12:43;99922.81;;;22.02;46.89
34177;BME280;20450;49.074;9.158;2022-08-11T00:15:17;99925.94;;;22.05;46.70
34177;BME280;20450;49.074;9.158;2022-08-11T00:17:45;99927.41;;;22.08;46.22
34177;BME280;20450;49.074;9.158;2022-08-11T00:20:14;99925.94;;;22.05;45.59
34177;BME280;20450;49.074;9.158;2022-08-11T00:22:46;99923.66;;;22.02;45.49
34177;BME280;20450;49.074;9.158;2022-08-11T00:25:16;99933.44;;;22.02;45.83
34177;BME280;20450;49.074;9.158;2022-08-11T00:27:46;99933.44;;;22.02;44.85
34177;BME280;20450;49.074;9.158;2022-08-11T00:30:15;99931.63;;;22.02;45.86
34177;BME280;20450;49.074;9.158;2022-08-11T00:32:44;99941.41;;;22.02;45.84
34177;BME280;20450;49.074;9.158;2022-08-11T00:35:23;99934.78;;;21.98;45.86
34177;BME280;20450;49.074;9.158;2022-08-11T00:38:15;99936.44;;;21.76;46.34
34177;BME280;20450;49.074;9.158;2022-08-11T00:40:44;99940.28;;;21.74;45.91
34177;BME280;20450;49.074;9.158;2022-08-11T00:43:23;99943.00;;;21.58;46.55
34177;BME280;20450;49.074;9.158;2022-08-11T00:46:13;99940.06;;;21.53;47.53
34177;BME280;20450;49.074;9.158;2022-08-11T00:48:55;99947.19;;;21.52;46.86
34177;BME280;20450;49.074;9.158;2022-08-11T00:51:42;99939.38;;;21.51;47.67
34177;BME280;20450;49.074;9.158;2022-08-11T01:01:21;99940.06;;;21.53;47.77
34177;BME280;20450;49.074;9.158;2022-08-11T01:04:31;99937.81;;;21.42;47.44
34177;BME280;20450;49.074;9.158;2022-08-11T01:08:04;99945.44;;;21.37;46.85
34177;BME280;20450;49.074;9.158;2022-08-11T01:10:50;99948.59;;;21.32;47.75
34177;BME280;20450;49.074;9.158;2022-08-11T01:14:25;99949.59;;;21.31;47.53
34177;BME280;20450;49.074;9.158;2022-08-11T01:17:47;99947.47;;;21.27;47.57
34177;BME280;20450;49.074;9.158;2022-08-11T01:21:02;99954.09;;;21.23;48.57
34177;BME280;20450;49.074;9.158;2022-08-11T01:31:28;99950.25;;;20.95;48.42
34177;BME280;20450;49.074;9.158;2022-08-11T01:38:10;99948.78;;;20.76;48.71
34177;BME280;20450;49.074;9.158;2022-08-11T01:41:21;99942.69;;;20.68;49.32
34177;BME280;20450;49.074;9.158;2022-08-11T01:44:16;99945.31;;;20.60;50.00
34177;BME280;20450;49.074;9.158;2022-08-11T01:47:08;99940.19;;;20.58;49.04
34177;BME280;20450;49.074;9.158;2022-08-11T01:49:54;99954.28;;;20.59;49.74
34177;BME280;20450;49.074;9.158;2022-08-11T01:52:47;99950.63;;;20.60;51.25
34177;BME280;20450;49.074;9.158;2022-08-11T01:55:36;99948.38;;;20.17;51.43
34177;BME280;20450;49.074;9.158;2022-08-11T01:58:22;99948.38;;;20.17;51.11
34177;BME280;20450;49.074;9.158;2022-08-11T02:01:23;99947.22;;;20.19;52.65
34177;BME280;20450;49.074;9.158;2022-08-11T02:04:14;99946.06;;;20.22;52.05
34177;BME280;20450;49.074;9.158;2022-08-11T02:07:00;99947.16;;;20.03;51.87
34177;BME280;20450;49.074;9.158;2022-08-11T02:10:13;99943.03;;;20.01;53.32
34177;BME280;20450;49.074;9.158;2022-08-11T02:13:13;99948.31;;;20.01;52.98
34177;BME280;20450;49.074;9.158;2022-08-11T02:16:15;99948.97;;;19.95;53.53
34177;BME280;20450;49.074;9.158;2022-08-11T02:19:03;99938.41;;;19.95;52.35
34177;BME280;20450;49.074;9.158;2022-08-11T02:21:49;99945.66;;;19.93;52.49
34177;BME280;20450;49.074;9.158;2022-08-11T02:24:27;99945.97;;;19.82;52.97
34177;BME280;20450;49.074;9.158;2022-08-11T02:27:03;99948.91;;;19.63;52.98
34177;BME280;20450;49.074;9.158;2022-08-11T02:29:46;99944.28;;;19.57;54.34
34177;BME280;20450;49.074;9.158;2022-08-11T02:32:28;99943.47;;;19.56;54.82
34177;BME280;20450;49.074;9.158;2022-08-11T02:35:07;99937.50;;;19.54;53.92
34177;BME280;20450;49.074;9.158;2022-08-11T02:37:47;99924.13;;;19.48;54.88
34177;BME280;20450;49.074;9.158;2022-08-11T02:40:28;99935.19;;;19.10;56.21
34177;BME280;20450;49.074;9.158;2022-08-11T02:43:07;99932.63;;;18.92;55.89
34177;BME280;20450;49.074;9.158;2022-08-11T02:45:48;99939.25;;;18.96;56.91
34177;BME280;20450;49.074;9.158;2022-08-11T02:48:36;99936.44;;;18.98;56.82
34177;BME280;20450;49.074;9.158;2022-08-11T02:51:19;99932.44;;;18.86;56.86
34177;BME280;20450;49.074;9.158;2022-08-11T02:54:04;99924.31;;;18.79;56.38
34177;BME280;20450;49.074;9.158;2022-08-11T02:56:43;99928.28;;;18.83;56.95
34177;BME280;20450;49.074;9.158;2022-08-11T02:59:24;99924.16;;;18.81;57.11
34177;BME280;20450;49.074;9.158;2022-08-11T03:02:10;99930.72;;;18.77;56.56
34177;BME280;20450;49.074;9.158;2022-08-11T03:04:57;99939.91;;;18.65;56.69
34177;BME280;20450;49.074;9.158;2022-08-11T03:07:37;99941.38;;;18.24;58.28
34177;BME280;20450;49.074;9.158;2022-08-11T03:10:21;99935.81;;;18.10;58.94
34177;BME280;20450;49.074;9.158;2022-08-11T03:13:00;99942.31;;;17.98;58.91
34177;BME280;20450;49.074;9.158;2022-08-11T03:15:45;99925.31;;;17.92;59.25
34177;BME280;20450;49.074;9.158;2022-08-11T03:18:24;99933.13;;;18.02;59.30
34177;BME280;20450;49.074;9.158;2022-08-11T03:21:06;99934.03;;;17.93;59.55
34177;BME280;20450;49.074;9.158;2022-08-11T03:23:43;99944.34;;;17.69;60.54
34177;BME280;20450;49.074;9.158;2022-08-11T03:26:24;99940.22;;;17.66;60.76
34177;BME280;20450;49.074;9.158;2022-08-11T03:29:04;99940.00;;;17.77;61.03
34177;BME280;20450;49.074;9.158;2022-08-11T03:31:57;99938.66;;;17.91;59.77
34177;BME280;20450;49.074;9.158;2022-08-11T03:34:30;99937.13;;;18.06;59.08
34177;BME280;20450;49.074;9.158;2022-08-11T03:37:14;99944.78;;;18.17;59.71
34177;BME280;20450;49.074;9.158;2022-08-11T03:39:58;99950.44;;;18.22;58.12
34177;BME280;20450;49.074;9.158;2022-08-11T03:42:45;99943.44;;;18.13;57.88
34177;BME280;20450;49.074;9.158;2022-08-11T03:45:25;99951.81;;;17.91;58.37
34177;BME280;20450;49.074;9.158;2022-08-11T03:48:18;99947.38;;;17.74;59.45
34177;BME280;20450;49.074;9.158;2022-08-11T03:51:02;99954.41;;;17.83;59.41
34177;BME280;20450;49.074;9.158;2022-08-11T03:53:57;99955.06;;;17.85;59.39
34177;BME280;20450;49.074;9.158;2022-08-11T04:00:22;99964.50;;;17.43;61.04
34177;BME280;20450;49.074;9.158;2022-08-11T04:03:36;99955.25;;;17.56;61.56
34177;BME280;20450;49.074;9.158;2022-08-11T04:10:02;99959.88;;;17.18;63.07
34177;BME280;20450;49.074;9.158;2022-08-11T04:12:56;99961.59;;;17.09;63.14
34177;BME280;20450;49.074;9.158;2022-08-11T04:16:06;99956.19;;;17.11;63.75
34177;BME280;20450;49.074;9.158;2022-08-11T04:22:21;99957.06;;;17.29;62.96
34177;BME280;20450;49.074;9.158;2022-08-11T04:25:29;99959.53;;;17.40;63.10
34177;BME280;20450;49.074;9.158;2022-08-11T04:28:53;99958.34;;;17.52;62.24
34177;BME280;20450;49.074;9.158;2022-08-11T04:31:35;99960.56;;;17.74;61.53
34177;BME280;20450;49.074;9.158;2022-08-11T04:34:48;99960.63;;;17.82;61.08
34177;BME280;20450;49.074;9.158;2022-08-11T04:37:46;99959.22;;;17.87;60.17
34177;BME280;20450;49.074;9.158;2022-08-11T04:40:47;99962.13;;;18.19;59.22
34177;BME280;20450;49.074;9.158;2022-08-11T04:44:04;99968.28;;;18.63;59.03
34177;BME280;20450;49.074;9.158;2022-08-11T04:47:10;99969.28;;;19.21;57.34
34177;BME280;20450;49.074;9.158;2022-08-11T04:49:58;99971.25;;;19.76;54.84
34177;BME280;20450;49.074;9.158;2022-08-11T04:53:02;99969.19;;;20.36;54.51
34177;BME280;20450;49.074;9.158;2022-08-11T04:55:58;99971.44;;;20.95;52.65
34177;BME280;20450;49.074;9.158;2022-08-11T04:58:48;99971.59;;;21.40;50.73
34177;BME280;20450;49.074;9.158;2022-08-11T05:01:32;99978.44;;;21.65;49.59
34177;BME280;20450;49.074;9.158;2022-08-11T05:04:33;99975.50;;;22.13;48.66
34177;BME280;20450;49.074;9.158;2022-08-11T05:07:44;99977.59;;;22.62;47.44
34177;BME280;20450;49.074;9.158;2022-08-11T05:10:47;99984.06;;;23.26;45.94
34177;BME280;20450;49.074;9.158;2022-08-11T05:13:31;99985.28;;;23.73;44.89
34177;BME280;20450;49.074;9.158;2022-08-11T05:16:08;99991.00;;;24.06;44.38
34177;BME280;20450;49.074;9.158;2022-08-11T05:18:45;99984.47;;;24.57;42.93
34177;BME280;20450;49.074;9.158;2022-08-11T05:21:20;99978.75;;;25.08;42.36
34177;BME280;20450;49.074;9.158;2022-08-11T05:23:55;99982.66;;;25.53;42.14
34177;BME280;20450;49.074;9.158;2022-08-11T05:26:37;99997.88;;;26.12;40.97
34177;BME280;20450;49.074;9.158;2022-08-11T05:29:40;100002.22;;;26.33;40.40
34177;BME280;20450;49.074;9.158;2022-08-11T05:32:13;99996.03;;;26.39;39.27
34177;BME280;20450;49.074;9.158;2022-08-11T05:34:46;99997.72;;;26.85;38.33
34177;BME280;20450;49.074;9.158;2022-08-11T05:37:23;99996.41;;;27.27;37.73
34177;BME280;20450;49.074;9.158;2022-08-11T05:40:05;99996.25;;;27.66;37.37
34177;BME280;20450;49.074;9.158;2022-08-11T05:42:38;100004.78;;;28.00;37.15
34177;BME280;20450;49.074;9.158;2022-08-11T05:45:17;100000.53;;;28.48;36.66
34177;BME280;20450;49.074;9.158;2022-08-11T05:47:51;100005.13;;;29.15;34.80
34177;BME280;20450;49.074;9.158;2022-08-11T05:50:21;100013.31;;;29.20;34.65
34177;BME280;20450;49.074;9.158;2022-08-11T05:53:08;99986.09;;;28.74;35.21
34177;BME280;20450;49.074;9.158;2022-08-11T05:55:46;99992.09;;;29.36;34.49
34177;BME280;20450;49.074;9.158;2022-08-11T05:58:33;100008.22;;;30.02;33.38
34177;BME280;20450;49.074;9.158;2022-08-11T06:01:08;100007.94;;;29.92;33.07
34177;BME280;20450;49.074;9.158;2022-08-11T06:03:37;99999.91;;;30.33;32.98
34177;BME280;20450;49.074;9.158;2022-08-11T06:06:25;100007.38;;;30.72;32.22
34177;BME280;20450;49.074;9.158;2022-08-11T06:09:01;100002.13;;;31.00;31.62
34177;BME280;20450;49.074;9.158;2022-08-11T06:11:29;99997.22;;;31.20;31.55
34177;BME280;20450;49.074;9.158;2022-08-11T06:14:11;99999.03;;;31.31;32.40
34177;BME280;20450;49.074;9.158;2022-08-11T06:16:41;100000.75;;;31.60;31.22
34177;BME280;20450;49.074;9.158;2022-08-11T06:19:12;100001.91;;;32.03;30.46
34177;BME280;20450;49.074;9.158;2022-08-11T06:21:43;100004.59;;;32.64;29.35
34177;BME280;20450;49.074;9.158;2022-08-11T06:24:15;99991.34;;;32.96;28.79
34177;BME280;20450;49.074;9.158;2022-08-11T06:26:50;100008.53;;;32.57;29.23
34177;BME280;20450;49.074;9.158;2022-08-11T06:29:46;100003.00;;;33.18;28.12
34177;BME280;20450;49.074;9.158;2022-08-11T06:32:28;100007.19;;;33.47;28.19
34177;BME280;20450;49.074;9.158;2022-08-11T06:35:12;99994.34;;;33.54;28.18
34177;BME280;20450;49.074;9.158;2022-08-11T06:38:01;100005.47;;;33.79;27.04
34177;BME280;20450;49.074;9.158;2022-08-11T06:40:48;99999.72;;;33.75;27.47
34177;BME280;20450;49.074;9.158;2022-08-11T06:43:23;100004.38;;;34.01;27.29
34177;BME280;20450;49.074;9.158;2022-08-11T06:45:59;100003.41;;;34.39;26.92
34177;BME280;20450;49.074;9.158;2022-08-11T06:48:31;100005.34;;;34.17;26.95
34177;BME280;20450;49.074;9.158;2022-08-11T06:51:02;100012.75;;;34.89;26.24
34177;BME280;20450;49.074;9.158;2022-08-11T06:53:32;100007.59;;;35.29;25.48
34177;BME280;20450;49.074;9.158;2022-08-11T06:56:01;100008.13;;;35.83;25.22
34177;BME280;20450;49.074;9.158;2022-08-11T07:02:51;100004.19;;;35.49;25.92
34177;BME280;20450;49.074;9.158;2022-08-11T07:05:30;100006.94;;;35.59;25.22
34177;BME280;20450;49.074;9.158;2022-08-11T07:08:31;100007.16;;;36.24;24.95
34177;BME280;20450;49.074;9.158;2022-08-11T07:14:27;99997.94;;;36.80;24.02
34177;BME280;20450;49.074;9.158;2022-08-11T07:17:07;100007.97;;;37.14;24.05
34177;BME280;20450;49.074;9.158;2022-08-11T07:19:54;100004.44;;;37.14;24.33
34177;BME280;20450;49.074;9.158;2022-08-11T07:22:30;100005.44;;;37.33;23.90
34177;BME280;20450;49.074;9.158;2022-08-11T07:25:04;100012.00;;;37.22;23.39
34177;BME280;20450;49.074;9.158;2022-08-11T07:27:47;100004.31;;;37.44;23.89
34177;BME280;20450;49.074;9.158;2022-08-11T07:30:18;100005.03;;;37.74;23.58
34177;BME280;20450;49.074;9.158;2022-08-11T07:40:59;99989.13;;;38.01;22.16
34177;BME280;20450;49.074;9.158;2022-08-11T07:43:29;100000.75;;;38.12;22.47
34177;BME280;20450;49.074;9.158;2022-08-11T07:46:18;99996.84;;;36.31;24.60
34177;BME280;20450;49.074;9.158;2022-08-11T07:48:47;99984.84;;;37.02;24.04
34177;BME280;20450;49.074;9.158;2022-08-11T07:51:17;99963.69;;;37.72;23.44
34177;BME280;20450;49.074;9.158;2022-08-11T07:53:47;99975.81;;;37.90;22.74
34177;BME280;20450;49.074;9.158;2022-08-11T07:56:37;99986.13;;;38.03;23.76
34177;BME280;20450;49.074;9.158;2022-08-11T07:59:26;99978.91;;;38.22;22.41
34177;BME280;20450;49.074;9.158;2022-08-11T08:02:14;99971.81;;;36.94;24.53
34177;BME280;20450;49.074;9.158;2022-08-11T08:04:44;99974.63;;;34.96;25.11
34177;BME280;20450;49.074;9.158;2022-08-11T08:07:19;99958.47;;;30.75;31.46
34177;BME280;20450;49.074;9.158;2022-08-11T08:09:49;99957.22;;;29.48;32.83
34177;BME280;20450;49.074;9.158;2022-08-11T08:12:19;99952.28;;;28.73;33.48
34177;BME280;20450;49.074;9.158;2022-08-11T08:14:52;99956.66;;;28.67;34.72
34177;BME280;20450;49.074;9.158;2022-08-11T08:17:21;99947.09;;;28.53;34.99
34177;BME280;20450;49.074;9.158;2022-08-11T08:19:49;99952.41;;;28.60;35.41
34177;BME280;20450;49.074;9.158;2022-08-11T08:22:18;99958.78;;;27.66;35.91
34177;BME280;20450;49.074;9.158;2022-08-11T08:25:06;99954.66;;;27.63;36.67
34177;BME280;20450;49.074;9.158;2022-08-11T08:27:35;99959.25;;;27.56;35.81
34177;BME280;20450;49.074;9.158;2022-08-11T08:30:05;99957.53;;;27.68;37.03
34177;BME280;20450;49.074;9.158;2022-08-11T08:32:37;99948.38;;;27.45;36.17
34177;BME280;20450;49.074;9.158;2022-08-11T08:35:07;99948.69;;;27.11;36.83
34177;BME280;20450;49.074;9.158;2022-08-11T08:37:37;99962.00;;;27.37;35.73
34177;BME280;20450;49.074;9.158;2022-08-11T08:40:13;99951.97;;;27.63;36.07
34177;BME280;20450;49.074;9.158;2022-08-11T08:42:46;99952.88;;;27.95;36.08
34177;BME280;20450;49.074;9.158;2022-08-11T08:45:16;99957.78;;;27.60;35.66
34177;BME280;20450;49.074;9.158;2022-08-11T08:47:48;99951.59;;;27.03;36.55
34177;BME280;20450;49.074;9.158;2022-08-11T08:50:51;99943.34;;;26.98;36.50
34177;BME280;20450;49.074;9.158;2022-08-11T08:58:50;99950.50;;;27.36;35.73
34177;BME280;20450;49.074;9.158;2022-08-11T09:01:42;99943.94;;;27.63;36.19
34177;BME280;20450;49.074;9.158;2022-08-11T09:08:41;99958.94;;;27.33;34.92
34177;BME280;20450;49.074;9.158;2022-08-11T09:26:13;99946.03;;;26.98;33.45
34177;BME280;20450;49.074;9.158;2022-08-11T09:28:41;99935.88;;;27.32;35.32
34177;BME280;20450;49.074;9.158;2022-08-11T09:31:20;99948.88;;;27.73;31.98
34177;BME280;20450;49.074;9.158;2022-08-11T09:33:51;99953.75;;;27.45;33.34
34177;BME280;20450;49.074;9.158;2022-08-11T09:36:21;99952.78;;;27.26;32.34
34177;BME280;20450;49.074;9.158;2022-08-11T09:38:51;99954.63;;;27.32;32.97
34177;BME280;20450;49.074;9.158;2022-08-11T09:41:19;99956.06;;;27.72;32.28
34177;BME280;20450;49.074;9.158;2022-08-11T09:43:52;99951.22;;;27.56;32.45
34177;BME280;20450;49.074;9.158;2022-08-11T09:46:23;99957.28;;;27.39;32.39
34177;BME280;20450;49.074;9.158;2022-08-11T09:48:52;99946.88;;;27.55;31.72
34177;BME280;20450;49.074;9.158;2022-08-11T09:51:29;99925.38;;;27.81;33.05
34177;BME280;20450;49.074;9.158;2022-08-11T09:54:01;99927.19;;;27.37;32.80
34177;BME280;20450;49.074;9.158;2022-08-11T09:56:31;99935.91;;;27.70;31.22
34177;BME280;20450;49.074;9.158;2022-08-11T09:59:00;99937.19;;;27.17;31.72
34177;BME280;20450;49.074;9.158;2022-08-11T10:01:31;99941.44;;;27.75;31.67
34177;BME280;20450;49.074;9.158;2022-08-11T10:04:11;99932.09;;;27.46;30.74
34177;BME280;20450;49.074;9.158;2022-08-11T10:06:40;99949.25;;;27.76;30.43
34177;BME280;20450;49.074;9.158;2022-08-11T10:09:11;99933.88;;;28.03;31.36
34177;BME280;20450;49.074;9.158;2022-08-11T10:11:41;99922.78;;;27.93;30.69
34177;BME280;20450;49.074;9.158;2022-08-11T10:14:25;99921.41;;;28.15;30.50
34177;BME280;20450;49.074;9.158;2022-08-11T10:17:05;99920.09;;;27.99;29.57
34177;BME280;20450;49.074;9.158;2022-08-11T10:19:35;99924.38;;;28.07;29.46
34177;BME280;20450;49.074;9.158;2022-08-11T10:22:05;99915.84;;;28.41;29.07
34177;BME280;20450;49.074;9.158;2022-08-11T10:24:35;99915.28;;;28.08;29.62
34177;BME280;20450;49.074;9.158;2022-08-11T10:27:06;99905.16;;;28.10;30.50
34177;BME280;20450;49.074;9.158;2022-08-11T10:29:38;99916.84;;;28.46;29.66
34177;BME280;20450;49.074;9.158;2022-08-11T10:32:11;99914.22;;;28.09;29.52
34177;BME280;20450;49.074;9.158;2022-08-11T10:34:43;99918.41;;;28.29;30.27
34177;BME280;20450;49.074;9.158;2022-08-11T10:37:22;99906.09;;;28.22;29.69
34177;BME280;20450;49.074;9.158;2022-08-11T10:40:15;99908.97;;;28.69;29.82
34177;BME280;20450;49.074;9.158;2022-08-11T10:42:48;99901.28;;;28.55;28.45
34177;BME280;20450;49.074;9.158;2022-08-11T10:45:25;99880.16;;;28.83;28.55
34177;BME280;20450;49.074;9.158;2022-08-11T10:47:55;99877.31;;;29.61;28.15
34177;BME280;20450;49.074;9.158;2022-08-11T10:50:24;99861.31;;;29.55;28.24
34177;BME280;20450;49.074;9.158;2022-08-11T10:52:54;99894.28;;;29.62;29.31
34177;BME280;20450;49.074;9.158;2022-08-11T10:55:25;99871.41;;;30.12;28.45
34177;BME280;20450;49.074;9.158;2022-08-11T10:57:54;99877.88;;;29.93;26.66
34177;BME280;20450;49.074;9.158;2022-08-11T11:00:31;99878.19;;;30.60;26.00
34177;BME280;20450;49.074;9.158;2022-08-11T11:03:00;99883.84;;;29.36;27.87
34177;BME280;20450;49.074;9.158;2022-08-11T11:05:54;99872.31;;;29.35;28.28
34177;BME280;20450;49.074;9.158;2022-08-11T11:08:56;99868.31;;;29.56;27.81
34177;BME280;20450;49.074;9.158;2022-08-11T11:11:43;99861.94;;;30.67;26.02
34177;BME280;20450;49.074;9.158;2022-08-11T11:14:15;99874.66;;;30.48;26.58
34177;BME280;20450;49.074;9.158;2022-08-11T11:16:45;99865.88;;;30.87;26.90
34177;BME280;20450;49.074;9.158;2022-08-11T11:19:18;99864.22;;;30.06;27.25
34177;BME280;20450;49.074;9.158;2022-08-11T11:21:55;99864.03;;;30.19;26.79
34177;BME280;20450;49.074;9.158;2022-08-11T11:24:36;99841.31;;;29.51;27.64
34177;BME280;20450;49.074;9.158;2022-08-11T11:27:20;99850.13;;;30.79;25.97
34177;BME280;20450;49.074;9.158;2022-08-11T11:30:04;99846.03;;;32.55;24.44
34177;BME280;20450;49.074;9.158;2022-08-11T11:32:46;99847.47;;;33.75;23.57
34177;BME280;20450;49.074;9.158;2022-08-11T11:35:31;99842.06;;;29.40;27.57
34177;BME280;20450;49.074;9.158;2022-08-11T11:38:07;99839.16;;;29.41;27.71
34177;BME280;20450;49.074;9.158;2022-08-11T11:41:03;99829.66;;;29.57;27.06
34177;BME280;20450;49.074;9.158;2022-08-11T11:49:08;99811.03;;;29.44;26.96
34177;BME280;20450;49.074;9.158;2022-08-11T11:52:29;99791.47;;;28.78;27.53
34177;BME280;20450;49.074;9.158;2022-08-11T11:55:01;99820.50;;;29.17;28.66
34177;BME280;20450;49.074;9.158;2022-08-11T11:57:30;99802.03;;;29.68;26.97
34177;BME280;20450;49.074;9.158;2022-08-11T12:00:02;99809.06;;;29.51;27.52
34177;BME280;20450;49.074;9.158;2022-08-11T12:02:36;99801.31;;;29.43;27.18
34177;BME280;20450;49.074;9.158;2022-08-11T12:05:09;99798.41;;;29.74;27.51
34177;BME280;20450;49.074;9.158;2022-08-11T12:07:38;99805.06;;;29.83;27.73
34177;BME280;20450;49.074;9.158;2022-08-11T12:10:07;99801.22;;;29.38;26.67
34177;BME280;20450;49.074;9.158;2022-08-11T12:12:35;99797.06;;;29.24;27.22
34177;BME280;20450;49.074;9.158;2022-08-11T12:15:04;99804.28;;;28.94;27.22
34177;BME280;20450;49.074;9.158;2022-08-11T12:17:34;99803.84;;;28.79;26.69
34177;BME280;20450;49.074;9.158;2022-08-11T12:20:05;99809.34;;;28.84;26.97
34177;BME280;20450;49.074;9.158;2022-08-11T12:22:55;99783.50;;;28.89;26.92
34177;BME280;20450;49.074;9.158;2022-08-11T12:25:23;99780.44;;;29.45;26.58
34177;BME280;20450;49.074;9.158;2022-08-11T12:27:52;99785.97;;;29.20;26.26
34177;BME280;20450;49.074;9.158;2022-08-11T12:30:19;99787.81;;;29.20;27.71
34177;BME280;20450;49.074;9.158;2022-08-11T12:32:47;99773.28;;;29.27;27.34
34177;BME280;20450;49.074;9.158;2022-08-11T12:35:16;99789.94;;;29.18;26.56
34177;BME280;20450;49.074;9.158;2022-08-11T12:37:45;99790.91;;;29.35;27.46
34177;BME280;20450;49.074;9.158;2022-08-11T12:40:20;99787.69;;;29.15;26.85
34177;BME280;20450;49.074;9.158;2022-08-11T12:43:15;99763.28;;;29.05;26.78
34177;BME280;20450;49.074;9.158;2022-08-11T12:45:57;99758.31;;;29.20;27.28
34177;BME280;20450;49.074;9.158;2022-08-11T12:48:31;99770.81;;;29.55;26.74
34177;BME280;20450;49.074;9.158;2022-08-11T12:51:25;99777.00;;;28.97;26.80
34177;BME280;20450;49.074;9.158;2022-08-11T12:54:24;99767.81;;;29.04;27.09
34177;BME280;20450;49.074;9.158;2022-08-11T12:56:59;99757.66;;;29.06;27.00
34177;BME280;20450;49.074;9.158;2022-08-11T12:59:29;99755.97;;;29.23;26.15
34177;BME280;20450;49.074;9.158;2022-08-11T13:01:58;99734.66;;;29.40;25.97
34177;BME280;20450;49.074;9.158;2022-08-11T13:04:27;99751.13;;;29.02;26.19
34177;BME280;20450;49.074;9.158;2022-08-11T13:06:56;99744.63;;;29.10;26.07
34177;BME280;20450;49.074;9.158;2022-08-11T13:09:24;99732.06;;;29.22;25.94
34177;BME280;20450;49.074;9.158;2022-08-11T13:11:51;99729.50;;;29.27;26.24
34177;BME280;20450;49.074;9.158;2022-08-11T13:14:24;99729.47;;;29.56;26.21
34177;BME280;20450;49.074;9.158;2022-08-11T13:16:53;99731.50;;;29.43;26.25
34177;BME280;20450;49.074;9.158;2022-08-11T13:19:21;99725.34;;;29.42;25.57
34177;BME280;20450;49.074;9.158;2022-08-11T13:21:51;99726.44;;;29.76;26.37
34177;BME280;20450;49.074;9.158;2022-08-11T13:24:20;99733.25;;;29.49;26.01
34177;BME280;20450;49.074;9.158;2022-08-11T13:26:49;99728.72;;;29.38;25.82
34177;BME280;20450;49.074;9.158;2022-08-11T13:29:19;99725.28;;;29.31;25.87
34177;BME280;20450;49.074;9.158;2022-08-11T13:31:49;99726.34;;;29.30;25.93
34177;BME280;20450;49.074;9.158;2022-08-11T13:34:17;99724.19;;;29.50;26.27
34177;BME280;20450;49.074;9.158;2022-08-11T13:36:48;99711.00;;;29.60;26.86
34177;BME280;20450;49.074;9.158;2022-08-11T13:39:17;99727.03;;;29.55;27.00
34177;BME280;20450;49.074;9.158;2022-08-11T13:41:48;99736.84;;;29.61;24.94
34177;BME280;20450;49.074;9.158;2022-08-11T13:44:16;99724.56;;;29.53;25.45
34177;BME280;20450;49.074;9.158;2022-08-11T13:46:53;99719.84;;;29.37;25.20
34177;BME280;20450;49.074;9.158;2022-08-11T13:49:24;99708.44;;;29.53;27.40
34177;BME280;20450;49.074;9.158;2022-08-11T13:51:57;99703.31;;;29.63;25.45
34177;BME280;20450;49.074;9.158;2022-08-11T13:54:28;99702.88;;;29.78;26.24
34177;BME280;20450;49.074;9.158;2022-08-11T13:57:00;99706.56;;;29.77;25.32
34177;BME280;20450;49.074;9.158;2022-08-11T13:59:39;99687.41;;;29.73;25.60
34177;BME280;20450;49.074;9.158;2022-08-11T14:02:23;99696.09;;;29.75;25.65
34177;BME280;20450;49.074;9.158;2022-08-11T14:04:57;99693.13;;;29.77;26.05
34177;BME280;20450;49.074;9.158;2022-08-11T14:07:36;99701.94;;;29.61;26.51
34177;BME280;20450;49.074;9.158;2022-08-11T14:10:08;99697.78;;;29.47;25.68
34177;BME280;20450;49.074;9.158;2022-08-11T14:12:46;99704.22;;;29.57;25.11
34177;BME280;20450;49.074;9.158;2022-08-11T14:15:28;99692.94;;;29.67;25.49
34177;BME280;20450;49.074;9.158;2022-08-11T14:18:03;99684.41;;;29.58;25.52
34177;BME280;20450;49.074;9.158;2022-08-11T14:20:37;99671.06;;;29.75;25.74
34177;BME280;20450;49.074;9.158;2022-08-11T14:23:26;99674.56;;;29.52;25.16
34177;BME280;20450;49.074;9.158;2022-08-11T14:25:57;99671.19;;;29.57;25.56
34177;BME280;20450;49.074;9.158;2022-08-11T14:28:32;99690.56;;;29.82;25.33
34177;BME280;20450;49.074;9.158;2022-08-11T14:31:11;99675.63;;;29.63;24.42
34177;BME280;20450;49.074;9.158;2022-08-11T14:33:43;99683.00;;;29.79;24.29
34177;BME280;20450;49.074;9.158;2022-08-11T14:36:34;99668.84;;;29.60;24.57
34177;BME280;20450;49.074;9.158;2022-08-11T14:39:14;99674.78;;;29.51;24.17
34177;BME280;20450;49.074;9.158;2022-08-11T14:41:46;99671.66;;;29.54;24.72
34177;BME280;20450;49.074;9.158;2022-08-11T14:44:56;99663.72;;;29.59;25.32
34177;BME280;20450;49.074;9.158;2022-08-11T14:47:27;99659.63;;;29.56;24.54
34177;BME280;20450;49.074;9.158;2022-08-11T14:49:57;99654.59;;;29.60;25.14
34177;BME280;20450;49.074;9.158;2022-08-11T14:52:44;99662.06;;;29.81;24.79
34177;BME280;20450;49.074;9.158;2022-08-11T14:55:16;99661.97;;;29.87;24.12
34177;BME280;20450;49.074;9.158;2022-08-11T14:57:44;99657.19;;;29.78;24.37
34177;BME280;20450;49.074;9.158;2022-08-11T15:00:24;99650.88;;;29.84;24.81
34177;BME280;20450;49.074;9.158;2022-08-11T15:02:53;99640.81;;;29.91;24.71
34177;BME280;20450;49.074;9.158;2022-08-11T15:05:23;99654.59;;;29.83;24.58
34177;BME280;20450;49.074;9.158;2022-08-11T15:07:53;99653.06;;;29.87;24.99
34177;BME280;20450;49.074;9.158;2022-08-11T15:10:21;99650.50;;;29.92;24.67
34177;BME280;20450;49.074;9.158;2022-08-11T15:12:49;99642.31;;;29.87;24.83
34177;BME280;20450;49.074;9.158;2022-08-11T15:15:18;99643.75;;;29.78;25.16
34177;BME280;20450;49.074;9.158;2022-08-11T15:17:48;99647.00;;;29.68;24.79
34177;BME280;20450;49.074;9.158;2022-08-11T15:20:20;99638.59;;;29.65;25.39
34177;BME280;20450;49.074;9.158;2022-08-11T15:22:48;99629.59;;;29.71;25.69